createdAt,value
2019-02-20T00:00:37.725Z,78.55
2019-02-20T00:02:14.382Z,78.57
2019-02-20T00:05:56.991Z,78.56
2019-02-20T00:08:30.909Z,78.56
2019-02-20T00:11:29.226Z,78.67
2019-02-20T00:14:35.492Z,78.67
2019-02-20T00:33:25.921Z,78.58
2019-02-20T00:36:32.449Z,78.60
2019-02-20T00:44:47.826Z,78.59
2019-02-20T00:55:58.645Z,78.60
2019-02-20T01:18:43.307Z,78.61
2019-02-20T01:21:42.782Z,78.62
2019-02-20T01:24:33.258Z,78.63
2019-02-20T01:28:31.920Z,78.65
2019-02-20T01:30:30.217Z,78.66
2019-02-20T01:36:36.733Z,78.67
2019-02-20T01:45:26.561Z,78.68
2019-02-20T01:51:31.417Z,78.71
2019-02-20T01:54:46.122Z,78.72
2019-02-20T01:58:01.719Z,78.74
2019-02-20T02:01:14.513Z,78.75
2019-02-20T02:04:18.423Z,78.75
2019-02-20T02:07:52.697Z,78.74
2019-02-20T02:10:45.018Z,78.75
2019-02-20T02:16:32.990Z,78.78
2019-02-20T02:19:11.493Z,78.79
2019-02-20T02:22:11.022Z,78.79
2019-02-20T02:31:25.867Z,78.81
2019-02-20T02:35:03.117Z,78.81
2019-02-20T02:36:59.756Z,78.82
2019-02-20T02:40:52.902Z,78.83
2019-02-20T02:43:26.519Z,78.85
2019-02-20T02:52:46.552Z,78.89
2019-02-20T03:02:09.362Z,78.93
2019-02-20T03:05:08.774Z,78.94
2019-02-20T03:08:06.651Z,78.93
2019-02-20T03:14:40.269Z,78.95
2019-02-20T03:18:08.018Z,78.95
2019-02-20T03:21:39.851Z,78.94
2019-02-20T03:27:54.972Z,79.01
2019-02-20T03:30:45.414Z,79.01
2019-02-20T03:33:42.961Z,79.05
2019-02-20T03:36:26.943Z,79.05
2019-02-20T03:39:18.918Z,79.07
2019-02-20T03:42:29.109Z,79.08
2019-02-20T03:45:25.277Z,79.08
2019-02-20T03:52:02.059Z,79.12
2019-02-20T03:55:15.305Z,79.14
2019-02-20T03:57:50.826Z,79.15
2019-02-20T04:00:46.018Z,79.18
2019-02-20T04:03:36.302Z,79.20
2019-02-20T04:06:23.856Z,79.20
2019-02-20T04:13:01.317Z,79.22
2019-02-20T04:16:08.144Z,79.23
2019-02-20T04:19:54.536Z,79.24
2019-02-20T04:22:48.625Z,79.25
2019-02-20T04:26:20.296Z,79.28
2019-02-20T04:28:58.415Z,79.27
2019-02-20T04:44:29.813Z,79.32
2019-02-20T04:53:33.577Z,79.35
2019-02-20T04:57:32.336Z,79.35
2019-02-20T04:59:55.126Z,79.36
2019-02-20T05:03:23.244Z,79.34
2019-02-20T05:06:28.621Z,79.35
2019-02-20T05:09:50.937Z,79.35
2019-02-20T05:18:40.123Z,79.39
2019-02-20T05:25:10.746Z,79.37
2019-02-20T05:35:13.812Z,79.37
2019-02-20T05:38:20.932Z,79.33
2019-02-20T05:42:08.813Z,79.37
2019-02-20T05:45:31.384Z,79.38
2019-02-20T05:48:50.734Z,79.36
2019-02-20T05:59:06.126Z,79.36
2019-02-20T06:02:21.001Z,79.36
2019-02-20T06:08:51.737Z,79.37
2019-02-20T06:15:46.220Z,79.36
2019-02-20T06:18:44.012Z,79.35
2019-02-20T06:34:51.277Z,79.29
2019-02-20T06:42:10.841Z,79.29
2019-02-20T06:59:48.452Z,79.35
2019-02-20T07:26:07.871Z,79.42
2019-02-20T07:28:20.104Z,79.40
2019-02-20T07:31:48.786Z,79.40
2019-02-20T07:54:12.342Z,79.45
2019-02-20T08:01:15.332Z,79.58
2019-02-20T08:03:57.252Z,79.75
2019-02-20T08:13:00.928Z,80.59
2019-02-20T08:16:52.180Z,80.65
2019-02-20T08:27:09.224Z,80.09
2019-02-20T08:34:12.193Z,80.13
2019-02-20T08:37:19.951Z,80.09
2019-02-20T08:40:26.654Z,80.05
2019-02-20T08:43:47.195Z,80.10
2019-02-20T08:49:15.113Z,80.03
2019-02-20T08:58:29.775Z,80.18
2019-02-20T09:26:54.857Z,80.21
2019-02-20T09:43:50.815Z,79.97
2019-02-20T09:50:12.796Z,80.07
2019-02-20T09:53:22.509Z,80.01
2019-02-20T10:00:47.378Z,79.99
2019-02-20T10:13:48.304Z,79.80
2019-02-20T10:28:03.244Z,79.80
2019-02-20T10:31:52.074Z,79.73
2019-02-20T10:43:46.766Z,79.62
2019-02-20T10:46:47.115Z,79.66
2019-02-20T10:49:55.746Z,79.81
2019-02-20T10:59:17.260Z,79.54
2019-02-20T11:13:05.359Z,79.22
2019-02-20T11:24:29.041Z,78.74
2019-02-20T11:34:55.089Z,78.51
2019-02-20T11:45:36.764Z,78.14
2019-02-20T11:51:52.787Z,77.89
2019-02-20T11:55:23.499Z,77.74
2019-02-20T12:06:52.694Z,77.06
2019-02-20T12:10:01.605Z,76.97
2019-02-20T12:31:43.459Z,76.31
2019-02-20T12:34:32.818Z,76.13
2019-02-20T12:44:27.105Z,75.54
2019-02-20T13:17:32.866Z,74.57
2019-02-20T13:39:14.735Z,73.80
2019-02-20T13:50:13.413Z,73.49
2019-02-20T14:12:25.578Z,72.93
2019-02-20T14:16:14.864Z,72.84
2019-02-20T14:23:46.819Z,72.54
2019-02-20T14:26:25.677Z,72.47
2019-02-20T14:29:05.251Z,72.31
2019-02-20T14:31:38.683Z,72.23
2019-02-20T14:34:14.415Z,72.13
2019-02-20T14:36:52.423Z,72.04
2019-02-20T14:39:25.197Z,71.89
2019-02-20T14:42:03.855Z,71.78
2019-02-20T14:44:36.341Z,71.60
2019-02-20T14:47:16.276Z,71.44
2019-02-20T14:49:50.249Z,71.27
2019-02-20T14:52:32.880Z,71.13
2019-02-20T14:55:11.531Z,70.97
2019-02-20T14:57:51.334Z,70.81
2019-02-20T15:00:25.894Z,70.66
2019-02-20T15:03:06.888Z,70.51
2019-02-20T15:05:45.104Z,70.40
2019-02-20T15:58:20.445Z,68.68
2019-02-20T16:04:28.539Z,68.52
2019-02-20T16:07:09.402Z,68.43
2019-02-20T16:20:16.754Z,68.20
2019-02-20T16:29:17.637Z,68.01
2019-02-20T17:06:53.744Z,67.32
2019-02-20T17:09:20.137Z,67.25
2019-02-20T17:12:23.294Z,67.23
2019-02-20T17:15:46.460Z,67.15
2019-02-20T17:18:44.225Z,67.10
2019-02-20T17:21:24.996Z,67.05
2019-02-20T17:24:06.884Z,67.03
2019-02-20T17:26:44.864Z,67.01
2019-02-20T17:29:30.762Z,66.93
2019-02-20T17:34:51.601Z,66.85
2019-02-20T17:37:26.304Z,66.84
2019-02-20T17:39:58.060Z,66.79
2019-02-20T17:42:31.260Z,66.76
2019-02-20T17:45:05.027Z,66.71
2019-02-20T17:48:01.754Z,66.67
2019-02-20T17:50:42.533Z,66.61
2019-02-20T17:53:45.705Z,66.55
2019-02-20T17:56:23.950Z,66.57
2019-02-20T17:58:57.865Z,66.53
2019-02-20T18:01:46.448Z,66.49
2019-02-20T18:04:21.420Z,66.49
2019-02-20T18:07:17.895Z,66.42
2019-02-20T18:09:54.727Z,66.42
2019-02-20T18:12:37.589Z,66.42
2019-02-20T18:15:14.948Z,66.36
2019-02-20T18:17:58.061Z,66.33
2019-02-20T18:20:37.562Z,66.26
2019-02-20T18:23:17.049Z,66.23
2019-02-20T18:25:49.747Z,66.18
2019-02-20T18:28:25.795Z,66.15
2019-02-20T18:31:03.229Z,66.09
2019-02-20T18:33:42.527Z,66.06
2019-02-20T18:36:15.798Z,65.98
2019-02-20T18:38:53.404Z,65.96
2019-02-20T18:41:27.177Z,65.94
2019-02-20T18:44:01.902Z,65.92
2019-02-20T18:46:38.920Z,65.90
2019-02-20T18:49:29.039Z,65.93
2019-02-20T18:51:57.434Z,65.86
2019-02-20T18:54:29.228Z,65.81
2019-02-20T18:57:08.603Z,65.76
2019-02-20T18:59:49.481Z,65.73
2019-02-20T19:02:46.960Z,65.68
2019-02-20T19:05:40.207Z,65.64
2019-02-20T19:08:45.571Z,65.59
2019-02-20T19:11:54.520Z,65.57
2019-02-20T19:15:10.106Z,65.57
2019-02-20T19:18:20.114Z,65.58
2019-02-20T19:21:16.567Z,65.57
2019-02-20T19:24:50.752Z,65.52
2019-02-20T19:27:48.453Z,65.44
2019-02-20T19:31:34.862Z,65.38
2019-02-20T19:41:44.876Z,65.31
2019-02-20T19:44:38.855Z,65.26
2019-02-20T19:47:40.409Z,65.22
2019-02-20T19:50:39.506Z,65.21
2019-02-20T19:53:30.873Z,65.20
2019-02-20T19:56:40.837Z,65.19
2019-02-20T19:59:48.634Z,65.18
2019-02-20T20:03:12.872Z,65.16
2019-02-20T20:06:05.281Z,65.13
2019-02-20T20:09:12.466Z,65.09
2019-02-20T20:12:21.530Z,65.04
2019-02-20T20:15:00.885Z,64.97
2019-02-20T20:18:06.668Z,64.94
2019-02-20T20:21:24.520Z,64.92
2019-02-20T20:24:41.565Z,64.96
2019-02-20T20:27:35.111Z,64.98
2019-02-20T20:30:53.792Z,64.94
2019-02-20T20:34:07.606Z,64.91
2019-02-20T20:37:25.053Z,64.89
2019-02-20T20:41:27.011Z,64.88
2019-02-20T20:44:45.903Z,64.88
2019-02-20T20:48:11.847Z,64.88
2019-02-20T20:51:23.143Z,64.79
2019-02-20T20:54:48.664Z,64.76
2019-02-20T20:57:35.794Z,64.76
2019-02-20T21:00:40.207Z,64.76
2019-02-20T21:03:16.514Z,64.75
2019-02-20T21:06:23.717Z,64.73
2019-02-20T21:09:20.404Z,64.70
2019-02-20T21:12:30.395Z,64.64
2019-02-20T21:15:24.764Z,64.59
2019-02-20T21:18:58.486Z,64.57
2019-02-20T21:21:50.708Z,64.58
2019-02-20T21:24:52.670Z,64.57
2019-02-20T21:28:09.983Z,64.56
2019-02-20T21:31:18.395Z,64.50
2019-02-20T21:34:28.204Z,64.49
2019-02-20T21:37:37.628Z,64.55
2019-02-20T21:40:29.782Z,64.53
2019-02-20T21:43:21.898Z,64.47
2019-02-20T21:46:22.698Z,64.54
2019-02-20T21:49:30.374Z,64.53
2019-02-20T21:52:55.448Z,64.50
2019-02-20T21:56:26.393Z,64.43
2019-02-20T21:59:46.108Z,64.43
2019-02-20T22:02:48.175Z,64.42
2019-02-20T22:06:16.031Z,64.40
2019-02-20T22:09:23.309Z,64.39
2019-02-20T22:12:54.045Z,64.37
2019-02-20T22:15:56.803Z,64.39
2019-02-20T22:19:00.176Z,64.37
2019-02-20T22:22:26.818Z,64.34
2019-02-20T22:25:51.780Z,64.33
2019-02-20T22:28:57.967Z,64.30
2019-02-20T22:32:24.487Z,64.30
2019-02-20T22:35:10.481Z,64.31
2019-02-20T22:38:23.755Z,64.27
2019-02-20T22:41:36.052Z,64.26
2019-02-20T22:44:58.861Z,64.27
2019-02-20T22:48:31.780Z,64.26
2019-02-20T22:51:53.055Z,64.25
2019-02-20T22:54:53.516Z,64.24
2019-02-20T22:58:23.801Z,64.28
2019-02-20T23:01:43.787Z,64.26
2019-02-20T23:04:40.287Z,64.23
2019-02-20T23:07:55.153Z,64.23
2019-02-20T23:11:01.572Z,64.29
2019-02-20T23:14:09.065Z,64.32
2019-02-20T23:16:43.114Z,64.27
2019-02-20T23:19:17.013Z,64.26
2019-02-20T23:21:47.859Z,64.25
2019-02-20T23:24:18.446Z,64.25
2019-02-20T23:26:54.859Z,64.26
2019-02-20T23:29:28.148Z,64.27
2019-02-20T23:32:00.260Z,64.27
2019-02-20T23:34:32.741Z,64.28
2019-02-20T23:37:06.405Z,64.27
2019-02-20T23:39:38.970Z,64.30
2019-02-20T23:42:14.406Z,64.35
2019-02-20T23:44:47.772Z,64.39
2019-02-20T23:47:18.729Z,64.42
2019-02-20T23:49:52.946Z,64.38
2019-02-20T23:52:23.664Z,64.36
2019-02-20T23:55:04.016Z,64.34
2019-02-20T23:57:34.300Z,64.37
